createdAt,value
2022-08-10T00:01:37.718Z,15.98
2022-08-10T00:04:43.367Z,15.65
2022-08-10T00:07:49.571Z,15.33
2022-08-10T00:10:55.521Z,15.11
2022-08-10T00:14:01.130Z,14.86
2022-08-10T00:17:09.683Z,14.68
2022-08-10T00:20:15.305Z,14.47
2022-08-10T00:23:20.893Z,14.29
2022-08-10T00:26:26.648Z,14.13
2022-08-10T00:29:52.028Z,13.96
2022-08-10T00:32:57.534Z,13.89
2022-08-10T00:36:03.091Z,15.25
2022-08-10T00:39:13.683Z,16.37
2022-08-10T00:42:21.613Z,17.35
2022-08-10T00:45:27.182Z,18.14
2022-08-10T00:48:33.375Z,18.55
2022-08-10T00:51:48.403Z,18.72
2022-08-10T00:54:54.632Z,19.02
2022-08-10T00:58:00.292Z,19.29
2022-08-10T01:01:11.180Z,19.58
2022-08-10T01:04:57.732Z,19.82
2022-08-10T01:08:08.146Z,20.03
2022-08-10T01:12:37.550Z,19.29
2022-08-10T01:14:46.283Z,17.94
2022-08-10T01:17:54.994Z,17.10
2022-08-10T01:21:10.943Z,16.39
2022-08-10T01:24:36.334Z,16.14
2022-08-10T01:27:49.834Z,17.25
2022-08-10T01:30:57.295Z,17.66
2022-08-10T01:34:06.620Z,17.72
2022-08-10T01:37:14.718Z,17.85
2022-08-10T01:40:23.049Z,17.90
2022-08-10T01:43:29.628Z,18.07
2022-08-10T01:46:36.151Z,18.18
2022-08-10T01:49:41.537Z,18.31
2022-08-10T01:52:49.167Z,18.43
2022-08-10T01:55:56.900Z,18.54
2022-08-10T01:59:04.192Z,18.56
2022-08-10T02:02:13.075Z,18.64
2022-08-10T02:05:18.995Z,18.72
2022-08-10T02:08:26.418Z,18.78
2022-08-10T02:12:06.473Z,18.79
2022-08-10T02:15:03.321Z,18.89
2022-08-10T02:18:09.839Z,18.96
2022-08-10T02:21:18.686Z,19.06
2022-08-10T02:24:25.815Z,19.14
2022-08-10T02:27:34.100Z,19.19
2022-08-10T02:30:42.174Z,19.19
2022-08-10T02:33:57.828Z,19.14
2022-08-10T02:37:11.054Z,19.10
2022-08-10T02:45:14.851Z,19.15
2022-08-10T02:45:24.323Z,19.15
2022-08-10T02:47:16.951Z,19.15
2022-08-10T02:50:26.695Z,19.15
2022-08-10T02:53:55.099Z,19.17
2022-08-10T02:57:05.813Z,19.14
2022-08-10T03:00:12.221Z,19.11
2022-08-10T03:03:20.578Z,19.13
2022-08-10T03:06:27.874Z,19.11
2022-08-10T03:09:35.368Z,19.06
2022-08-10T03:12:43.790Z,18.96
2022-08-10T03:15:51.616Z,18.99
2022-08-10T03:18:57.748Z,18.97
2022-08-10T03:22:04.211Z,18.93
2022-08-10T03:25:11.396Z,18.85
2022-08-10T03:28:18.251Z,18.85
2022-08-10T03:31:26.950Z,18.92
2022-08-10T03:34:36.139Z,19.09
2022-08-10T03:37:42.304Z,19.15
2022-08-10T03:40:49.152Z,19.07
2022-08-10T03:43:54.618Z,18.86
2022-08-10T03:47:00.842Z,18.82
2022-08-10T03:50:51.422Z,18.83
2022-08-10T03:54:04.604Z,18.86
2022-08-10T03:57:06.603Z,18.94
2022-08-10T04:00:13.510Z,19.14
2022-08-10T04:03:19.197Z,19.55
2022-08-10T04:06:25.092Z,20.02
2022-08-10T04:09:53.680Z,20.30
2022-08-10T04:12:59.024Z,19.72
2022-08-10T04:16:07.424Z,19.38
2022-08-10T04:19:14.470Z,19.03
2022-08-10T04:22:26.022Z,18.55
2022-08-10T04:25:31.797Z,18.25
2022-08-10T04:28:37.450Z,18.10
2022-08-10T04:31:45.051Z,18.24
2022-08-10T04:34:51.100Z,18.44
2022-08-10T04:37:59.713Z,18.58
2022-08-10T04:41:05.316Z,18.96
2022-08-10T04:44:11.044Z,19.41
2022-08-10T04:48:00.185Z,19.80
2022-08-10T04:50:46.196Z,20.12
2022-08-10T04:54:05.681Z,20.41
2022-08-10T04:57:13.128Z,20.58
2022-08-10T05:00:19.062Z,20.58
2022-08-10T05:03:24.729Z,20.51
2022-08-10T05:06:30.114Z,20.26
2022-08-10T05:10:02.740Z,20.23
2022-08-10T05:13:00.851Z,20.35
2022-08-10T05:16:06.333Z,20.61
2022-08-10T05:19:11.635Z,20.88
2022-08-10T05:22:17.151Z,21.16
2022-08-10T05:25:22.701Z,21.34
2022-08-10T05:28:30.848Z,21.43
2022-08-10T05:31:41.541Z,21.51
2022-08-10T05:34:46.816Z,21.47
2022-08-10T05:38:09.731Z,21.44
2022-08-10T05:41:20.477Z,21.46
2022-08-10T05:44:28.192Z,21.57
2022-08-10T05:48:57.252Z,21.65
2022-08-10T05:50:59.283Z,21.74
2022-08-10T05:54:10.707Z,21.82
2022-08-10T05:57:16.991Z,21.91
2022-08-10T06:00:37.272Z,22.01
2022-08-10T06:03:49.242Z,22.02
2022-08-10T06:06:55.464Z,22.01
2022-08-10T06:10:02.119Z,21.98
2022-08-10T06:13:31.036Z,22.01
2022-08-10T06:16:41.011Z,22.03
2022-08-10T06:19:48.523Z,22.10
2022-08-10T06:22:54.069Z,22.24
2022-08-10T06:26:11.844Z,22.29
2022-08-10T06:29:20.458Z,22.34
2022-08-10T06:32:28.521Z,22.30
2022-08-10T06:35:39.452Z,22.40
2022-08-10T06:38:46.754Z,22.51
2022-08-10T06:41:57.943Z,22.56
2022-08-10T06:45:26.889Z,22.61
2022-08-10T06:48:33.971Z,22.68
2022-08-10T06:51:41.050Z,22.75
2022-08-10T06:54:46.690Z,22.79
2022-08-10T06:57:59.739Z,22.96
2022-08-10T07:01:10.795Z,23.09
2022-08-10T07:04:31.913Z,23.06
2022-08-10T07:07:42.375Z,23.16
2022-08-10T07:10:49.246Z,23.43
2022-08-10T07:14:17.357Z,23.62
2022-08-10T07:17:24.006Z,23.80
2022-08-10T07:20:29.618Z,24.04
2022-08-10T07:23:57.635Z,24.29
2022-08-10T07:27:02.087Z,24.47
2022-08-10T07:30:08.679Z,24.70
2022-08-10T07:33:15.911Z,24.90
2022-08-10T07:36:23.431Z,25.11
2022-08-10T07:40:02.670Z,25.33
2022-08-10T07:42:59.027Z,25.56
2022-08-10T07:46:09.578Z,25.79
2022-08-10T07:49:19.705Z,25.93
2022-08-10T07:52:26.042Z,26.09
2022-08-10T07:56:05.846Z,26.21
2022-08-10T07:59:01.679Z,26.20
2022-08-10T08:02:10.036Z,26.15
2022-08-10T08:05:29.845Z,26.17
2022-08-10T08:08:43.875Z,26.12
2022-08-10T08:11:51.761Z,26.29
2022-08-10T08:14:58.510Z,26.52
2022-08-10T08:18:05.720Z,26.67
2022-08-10T08:24:02.515Z,26.83
2022-08-10T08:24:39.110Z,26.82
2022-08-10T08:27:47.703Z,26.90
2022-08-10T08:30:54.416Z,26.87
2022-08-10T08:34:01.961Z,26.82
2022-08-10T08:37:09.130Z,26.56
2022-08-10T08:40:15.582Z,26.60
2022-08-10T08:43:34.904Z,26.77
2022-08-10T08:46:58.809Z,26.94
2022-08-10T08:50:10.951Z,27.20
2022-08-10T08:54:02.635Z,27.20
2022-08-10T08:57:04.538Z,27.25
2022-08-10T09:00:13.744Z,27.35
2022-08-10T09:03:36.907Z,27.49
2022-08-10T09:07:07.498Z,27.72
2022-08-10T09:10:46.862Z,27.81
2022-08-10T09:13:56.893Z,27.79
2022-08-10T09:17:08.413Z,27.86
2022-08-10T09:20:18.438Z,27.89
2022-08-10T09:24:05.401Z,28.10
2022-08-10T09:26:54.054Z,28.41
2022-08-10T09:30:05.585Z,28.55
2022-08-10T09:36:25.996Z,28.32
2022-08-10T09:36:44.376Z,28.16
2022-08-10T09:40:12.213Z,28.21
2022-08-10T09:43:32.133Z,28.32
2022-08-10T09:46:48.298Z,28.52
2022-08-10T09:50:04.980Z,28.92
2022-08-10T09:53:17.738Z,29.36
2022-08-10T09:56:30.213Z,29.95
2022-08-10T10:00:00.238Z,30.27
2022-08-10T10:03:10.324Z,30.13
2022-08-10T10:06:18.938Z,29.82
2022-08-10T10:09:30.385Z,29.59
2022-08-10T10:12:41.408Z,29.30
2022-08-10T10:15:50.499Z,29.21
2022-08-10T10:19:02.840Z,29.26
2022-08-10T10:22:22.080Z,29.23
2022-08-10T10:25:50.847Z,29.24
2022-08-10T10:29:30.751Z,29.49
2022-08-10T10:32:39.732Z,29.86
2022-08-10T10:35:52.454Z,30.40
2022-08-10T10:38:59.875Z,31.03
2022-08-10T10:42:34.952Z,31.50
2022-08-10T10:45:50.425Z,31.47
2022-08-10T10:49:04.748Z,31.43
2022-08-10T10:52:16.324Z,31.37
2022-08-10T10:55:27.047Z,31.19
2022-08-10T10:58:36.373Z,31.38
2022-08-10T11:01:49.020Z,31.70
2022-08-10T11:05:06.346Z,31.84
2022-08-10T11:08:15.394Z,31.47
2022-08-10T11:12:01.409Z,30.74
2022-08-10T11:14:53.977Z,30.10
2022-08-10T11:18:04.847Z,29.71
2022-08-10T11:21:15.197Z,29.65
2022-08-10T11:24:48.497Z,29.76
2022-08-10T11:27:57.036Z,29.96
2022-08-10T11:31:07.183Z,29.82
2022-08-10T11:34:48.626Z,30.24
2022-08-10T11:38:31.619Z,30.88
2022-08-10T11:42:10.195Z,31.32
2022-08-10T11:44:46.231Z,31.57
2022-08-10T11:47:54.445Z,31.67
2022-08-10T11:51:02.767Z,31.40
2022-08-10T11:54:10.237Z,30.85
2022-08-10T11:57:16.144Z,30.21
2022-08-10T12:00:22.655Z,29.72
2022-08-10T12:03:34.051Z,29.18
2022-08-10T12:06:55.036Z,28.82
2022-08-10T12:10:12.299Z,28.62
2022-08-10T12:13:23.847Z,28.89
2022-08-10T12:16:31.058Z,29.33
2022-08-10T12:19:59.626Z,29.77
2022-08-10T12:23:09.167Z,30.40
2022-08-10T12:26:19.110Z,30.97
2022-08-10T12:29:27.487Z,31.64
2022-08-10T12:32:41.093Z,31.78
2022-08-10T12:36:14.857Z,31.65
2022-08-10T12:39:17.929Z,31.55
2022-08-10T12:42:38.715Z,31.40
2022-08-10T12:45:52.269Z,31.34
2022-08-10T12:49:16.121Z,30.77
2022-08-10T12:52:25.851Z,30.02
2022-08-10T12:55:32.326Z,29.48
2022-08-10T12:58:57.325Z,29.16
2022-08-10T13:02:10.860Z,28.93
2022-08-10T13:05:17.270Z,29.16
2022-08-10T13:08:42.622Z,29.31
2022-08-10T13:12:44.945Z,29.51
2022-08-10T13:15:44.601Z,29.91
2022-08-10T13:18:50.716Z,30.09
2022-08-10T13:21:57.894Z,30.17
2022-08-10T13:25:06.757Z,30.24
2022-08-10T13:28:35.364Z,30.12
2022-08-10T13:32:04.526Z,30.21
2022-08-10T13:35:13.029Z,30.35
2022-08-10T13:38:22.980Z,30.48
2022-08-10T13:41:29.784Z,30.69
2022-08-10T13:44:38.344Z,30.82
2022-08-10T13:47:48.754Z,30.78
2022-08-10T13:50:58.913Z,30.48
2022-08-10T13:54:05.326Z,30.17
2022-08-10T13:57:13.385Z,30.17
2022-08-10T14:00:34.049Z,30.44
2022-08-10T14:03:45.486Z,30.82
2022-08-10T14:06:53.781Z,31.19
2022-08-10T14:10:07.106Z,31.26
2022-08-10T14:13:12.839Z,31.53
2022-08-10T14:16:19.034Z,31.67
2022-08-10T14:19:26.617Z,32.04
2022-08-10T14:22:34.709Z,32.33
2022-08-10T14:25:49.523Z,32.26
2022-08-10T14:28:57.303Z,31.68
2022-08-10T14:32:03.898Z,31.16
2022-08-10T14:36:18.940Z,30.88
2022-08-10T14:38:38.010Z,30.83
2022-08-10T14:42:04.455Z,30.97
2022-08-10T14:45:12.795Z,31.24
2022-08-10T14:48:19.693Z,31.75
2022-08-10T14:51:44.168Z,32.33
2022-08-10T14:54:55.703Z,32.95
2022-08-10T14:58:19.925Z,33.25
2022-08-10T15:01:26.987Z,33.35
2022-08-10T15:04:53.709Z,33.49
2022-08-10T15:08:02.148Z,33.74
2022-08-10T15:12:11.579Z,33.48
2022-08-10T15:14:43.051Z,33.04
2022-08-10T15:17:52.882Z,32.37
2022-08-10T15:21:00.619Z,31.64
2022-08-10T15:24:12.907Z,30.93
2022-08-10T15:27:19.381Z,30.35
2022-08-10T15:30:32.335Z,29.91
2022-08-10T15:34:04.166Z,29.99
2022-08-10T15:37:39.338Z,30.44
2022-08-10T15:40:50.461Z,31.16
2022-08-10T15:43:56.925Z,31.87
2022-08-10T15:47:04.635Z,32.56
2022-08-10T15:50:13.870Z,32.81
2022-08-10T15:53:28.237Z,32.74
2022-08-10T15:56:37.416Z,32.77
2022-08-10T15:59:46.311Z,32.88
2022-08-10T16:02:53.906Z,33.08
2022-08-10T16:06:03.380Z,33.17
2022-08-10T16:10:22.802Z,33.39
2022-08-10T16:12:43.514Z,33.63
2022-08-10T16:15:54.542Z,33.72
2022-08-10T16:19:03.239Z,33.66
2022-08-10T16:22:36.390Z,33.60
2022-08-10T16:25:52.222Z,33.70
2022-08-10T16:29:07.550Z,33.69
2022-08-10T16:32:14.598Z,33.72
2022-08-10T16:35:24.807Z,33.70
2022-08-10T16:38:31.938Z,33.60
2022-08-10T16:42:03.385Z,33.32
2022-08-10T16:45:05.535Z,33.05
2022-08-10T16:48:11.353Z,32.91
2022-08-10T16:51:20.990Z,32.77
2022-08-10T16:54:27.825Z,32.92
2022-08-10T16:57:38.374Z,33.07
2022-08-10T17:00:45.684Z,32.95
2022-08-10T17:04:06.815Z,32.63
2022-08-10T17:07:15.921Z,32.63
2022-08-10T17:10:23.980Z,32.66
2022-08-10T17:13:30.961Z,32.39
2022-08-10T17:16:37.814Z,32.29
2022-08-10T17:19:46.951Z,32.37
2022-08-10T17:22:54.878Z,32.27
2022-08-10T17:26:02.652Z,32.16
2022-08-10T17:29:53.609Z,32.02
2022-08-10T17:32:43.889Z,31.81
2022-08-10T17:35:51.882Z,31.67
2022-08-10T17:38:58.048Z,31.41
2022-08-10T17:42:05.249Z,31.23
2022-08-10T17:45:20.728Z,30.93
2022-08-10T17:48:43.411Z,30.44
2022-08-10T17:51:53.329Z,29.91
2022-08-10T17:55:02.007Z,29.24
2022-08-10T17:58:14.485Z,28.55
2022-08-10T18:01:40.478Z,28.04
2022-08-10T18:04:50.042Z,27.41
2022-08-10T18:07:55.523Z,26.85
2022-08-10T18:11:02.804Z,26.34
2022-08-10T18:14:09.309Z,25.83
2022-08-10T18:17:16.391Z,25.43
2022-08-10T18:20:27.851Z,25.08
2022-08-10T18:23:35.986Z,24.71
2022-08-10T18:26:43.006Z,24.44
2022-08-10T18:29:50.741Z,24.12
2022-08-10T18:32:57.282Z,23.87
2022-08-10T18:36:04.520Z,23.64
2022-08-10T18:39:11.656Z,23.43
2022-08-10T18:42:20.830Z,23.27
2022-08-10T18:45:28.615Z,23.06
2022-08-10T18:48:40.194Z,22.89
2022-08-10T18:51:51.452Z,22.74
2022-08-10T18:55:03.846Z,22.58
2022-08-10T18:58:34.642Z,22.46
2022-08-10T19:01:48.968Z,22.34
2022-08-10T19:05:05.321Z,22.19
2022-08-10T19:08:48.795Z,22.03
2022-08-10T19:12:02.654Z,21.91
2022-08-10T19:15:20.961Z,21.82
2022-08-10T19:18:33.381Z,21.68
2022-08-10T19:21:42.752Z,21.60
2022-08-10T19:24:52.331Z,21.47
2022-08-10T19:28:11.601Z,21.36
2022-08-10T19:31:22.793Z,21.27
2022-08-10T19:34:45.616Z,21.20
2022-08-10T19:38:01.473Z,21.10
2022-08-10T19:41:11.299Z,21.03
2022-08-10T19:44:22.881Z,20.93
2022-08-10T19:47:31.976Z,20.86
2022-08-10T19:50:41.797Z,20.74
2022-08-10T19:53:54.670Z,20.64
2022-08-10T19:57:04.612Z,20.55
2022-08-10T20:00:18.622Z,20.45
2022-08-10T20:03:31.766Z,20.37
2022-08-10T20:06:40.949Z,20.27
2022-08-10T20:09:50.615Z,20.21
2022-08-10T20:13:03.748Z,20.16
2022-08-10T20:16:12.851Z,20.13
2022-08-10T20:19:23.400Z,20.06
2022-08-10T20:22:31.012Z,20.03
2022-08-10T20:25:36.583Z,19.99
2022-08-10T20:28:43.471Z,19.90
2022-08-10T20:31:57.204Z,19.82
2022-08-10T20:35:07.572Z,19.70
2022-08-10T20:38:17.054Z,19.58
2022-08-10T20:41:25.462Z,19.44
2022-08-10T20:44:39.325Z,19.33
2022-08-10T20:47:54.074Z,19.15
2022-08-10T20:51:02.223Z,19.02
2022-08-10T20:54:09.606Z,18.82
2022-08-10T20:57:55.004Z,18.66
2022-08-10T21:00:51.826Z,18.48
2022-08-10T21:04:04.102Z,18.34
2022-08-10T21:07:28.242Z,18.17
2022-08-10T21:10:47.475Z,18.00
2022-08-10T21:13:59.095Z,17.88
2022-08-10T21:17:10.966Z,17.72
2022-08-10T21:20:35.729Z,17.61
2022-08-10T21:23:46.147Z,17.46
2022-08-10T21:26:56.650Z,17.31
2022-08-10T21:30:08.983Z,17.20
2022-08-10T21:33:17.304Z,17.07
2022-08-10T21:36:25.076Z,16.93
2022-08-10T21:39:44.219Z,16.83
2022-08-10T21:43:11.831Z,16.70
2022-08-10T21:46:39.727Z,16.56
2022-08-10T21:50:27.419Z,16.42
2022-08-10T21:53:53.318Z,16.32
2022-08-10T21:57:21.504Z,16.19
2022-08-10T22:04:26.130Z,15.96
2022-08-10T22:07:50.751Z,15.86
2022-08-10T22:11:15.413Z,15.75
2022-08-10T22:14:44.307Z,15.63
2022-08-10T22:18:07.855Z,15.52
2022-08-10T22:25:29.051Z,15.30
2022-08-10T22:29:00.297Z,15.21
2022-08-10T22:31:28.795Z,15.42
2022-08-10T22:32:32.674Z,15.10
2022-08-10T22:36:23.537Z,15.03
2022-08-10T22:40:07.363Z,15.00
2022-08-10T22:43:44.107Z,14.93
2022-08-10T22:47:10.013Z,14.91
2022-08-10T22:50:18.944Z,14.84
2022-08-10T22:53:47.775Z,14.75
2022-08-10T22:57:10.906Z,14.63
2022-08-10T23:00:18.515Z,14.69
2022-08-10T23:03:25.917Z,14.86
2022-08-10T23:06:32.214Z,14.94
2022-08-10T23:09:42.044Z,15.04
2022-08-10T23:12:49.721Z,15.04
2022-08-10T23:16:16.160Z,15.03
2022-08-10T23:19:22.889Z,15.04
2022-08-10T23:22:35.071Z,15.04
2022-08-10T23:25:56.508Z,15.01
2022-08-10T23:29:09.768Z,15.04
2022-08-10T23:32:19.080Z,15.04
2022-08-10T23:36:29.876Z,15.06
2022-08-10T23:38:57.341Z,15.07
2022-08-10T23:42:21.341Z,15.10
2022-08-10T23:45:28.966Z,15.18
2022-08-10T23:48:56.046Z,15.21
2022-08-10T23:52:02.229Z,15.22
2022-08-10T23:55:09.584Z,15.27
2022-08-10T23:58:30.044Z,15.31
